48.7°F
Current conditions from King Hill
Updated every 5 minutes
 
  Sunday November 23, 2014

Station Historical Data
Daily Summary for June 5, 2012 Units:  Both    English   Metric
« Previous Day
Next Day »
Daily Weekly Monthly Yearly Custom
  High: Low: Average:
Temperature: 67.3 °F /  19.6 °C 45.5 °F /  7.5 °C 55.6 °F /  13.1 °C
Dew Point: 52.9 °F /  11.6 °C 43.6 °F /  6.4 °C 47.8 °F /  8.8 °C
Humidity: 100% 49% 77%
Wind Speed: 8.0mph /  12.9km/h - 2.6mph /  4.2km/h
Wind Gust: 18.0mph /  29km/h - -
Wind- - ENE
Pressure: 29.91 in /  1012.8 hPa 29.82 in /  1009.7 hPa -
Precipitation: 0.01 in /  0.3 mm    
Historical Graphs
 
 
Tabular Data for June 5, 2012
Time Temperature Dew Point Pressure Wind Wind Speed Wind Gust Humidity Daily Rainfall
00:05 46.1 °F /  7.8 °C 44.2 °F /  6.8 °C 29.84in /  1010.4hPa Calm     93% 0.00in /  0mm
00:09 45.9 °F /  7.7 °C 44.0 °F /  6.7 °C 29.84in /  1010.4hPa Calm     93% 0.00in /  0mm
00:14 45.8 °F /  7.7 °C 43.6 °F /  6.4 °C 29.83in /  1010hPa Calm     92% 0.00in /  0mm
00:19 45.7 °F /  7.6 °C 43.8 °F /  6.6 °C 29.83in /  1010hPa Calm     93% 0.00in /  0mm
00:24 45.8 °F /  7.7 °C 43.9 °F /  6.6 °C 29.83in /  1010hPa Calm     93% 0.00in /  0mm
00:29 45.7 °F /  7.6 °C 43.8 °F /  6.6 °C 29.83in /  1010hPa Calm     93% 0.00in /  0mm
00:35 45.6 °F /  7.6 °C 43.7 °F /  6.5 °C 29.83in /  1010hPa Calm     93% 0.00in /  0mm
00:39 45.5 °F /  7.5 °C 43.6 °F /  6.4 °C 29.83in /  1010hPa Calm     93% 0.00in /  0mm
00:44 45.6 °F /  7.6 °C 43.7 °F /  6.5 °C 29.83in /  1010hPa Calm     93% 0.00in /  0mm
00:49 45.6 °F /  7.6 °C 43.7 °F /  6.5 °C 29.84in /  1010.4hPa Calm     93% 0.00in /  0mm
00:54 45.5 °F /  7.5 °C 43.6 °F /  6.4 °C 29.84in /  1010.4hPa Calm     93% 0.00in /  0mm
00:59 45.5 °F /  7.5 °C 43.6 °F /  6.4 °C 29.84in /  1010.4hPa Calm     93% 0.00in /  0mm
01:04 45.5 °F /  7.5 °C 43.6 °F /  6.4 °C 29.84in /  1010.4hPa Calm     93% 0.00in /  0mm
01:09 45.6 °F /  7.6 °C 44.0 °F /  6.7 °C 29.84in /  1010.4hPa Calm     94% 0.00in /  0mm
01:14 45.9 °F /  7.7 °C 44.3 °F /  6.8 °C 29.84in /  1010.4hPa Calm     94% 0.00in /  0mm
01:19 46.2 °F /  7.9 °C 44.6 °F /  7 °C 29.84in /  1010.4hPa Calm     94% 0.00in /  0mm
01:29 46.6 °F /  8.1 °C 45.0 °F /  7.2 °C 29.83in /  1010hPa Calm     94% 0.00in /  0mm
01:34 46.8 °F /  8.2 °C 45.4 °F /  7.4 °C 29.83in /  1010hPa Calm     95% 0.00in /  0mm
01:39 47.1 °F /  8.4 °C 45.7 °F /  7.6 °C 29.83in /  1010hPa Calm     95% 0.00in /  0mm
01:44 47.3 °F /  8.5 °C 45.9 °F /  7.7 °C 29.83in /  1010hPa Calm     95% 0.00in /  0mm
01:49 47.5 °F /  8.6 °C 46.1 °F /  7.8 °C 29.83in /  1010hPa Calm     95% 0.00in /  0mm
01:54 47.7 °F /  8.7 °C 46.3 °F /  7.9 °C 29.83in /  1010hPa Calm   2.0mph /  3.2km/h 95% 0.00in /  0mm
01:59 47.8 °F /  8.8 °C 46.4 °F /  8 °C 29.83in /  1010hPa Calm   2.0mph /  3.2km/h 95% 0.00in /  0mm
02:04 47.9 °F /  8.8 °C 46.5 °F /  8.1 °C 29.83in /  1010hPa Calm   1.0mph /  1.6km/h 95% 0.00in /  0mm
02:09 48.0 °F /  8.9 °C 46.6 °F /  8.1 °C 29.82in /  1009.7hPa Calm     95% 0.00in /  0mm
02:14 48.1 °F /  8.9 °C 46.7 °F /  8.2 °C 29.83in /  1010hPa Calm     95% 0.00in /  0mm
02:19 48.2 °F /  9 °C 46.8 °F /  8.2 °C 29.83in /  1010hPa Calm   1.0mph /  1.6km/h 95% 0.00in /  0mm
02:24 48.4 °F /  9.1 °C 47.0 °F /  8.3 °C 29.83in /  1010hPa Calm   4.0mph /  6.4km/h 95% 0.00in /  0mm
02:34 48.6 °F /  9.2 °C 47.2 °F /  8.4 °C 29.83in /  1010hPa Calm   2.0mph /  3.2km/h 95% 0.00in /  0mm
02:39 48.8 °F /  9.3 °C 47.4 °F /  8.6 °C 29.83in /  1010hPa Calm   2.0mph /  3.2km/h 95% 0.00in /  0mm
02:44 48.9 °F /  9.4 °C 47.5 °F /  8.6 °C 29.83in /  1010hPa Calm   2.0mph /  3.2km/h 95% 0.00in /  0mm
02:49 49.0 °F /  9.4 °C 47.6 °F /  8.7 °C 29.83in /  1010hPa Calm   1.0mph /  1.6km/h 95% 0.00in /  0mm
02:54 49.0 °F /  9.4 °C 47.6 °F /  8.7 °C 29.83in /  1010hPa Calm   1.0mph /  1.6km/h 95% 0.00in /  0mm
02:59 49.1 °F /  9.5 °C 47.7 °F /  8.7 °C 29.83in /  1010hPa Calm   1.0mph /  1.6km/h 95% 0.00in /  0mm
03:04 49.1 °F /  9.5 °C 47.7 °F /  8.7 °C 29.83in /  1010hPa Calm   2.0mph /  3.2km/h 95% 0.00in /  0mm
03:09 49.1 °F /  9.5 °C 47.7 °F /  8.7 °C 29.83in /  1010hPa Calm   2.0mph /  3.2km/h 95% 0.00in /  0mm
03:14 49.0 °F /  9.4 °C 47.6 °F /  8.7 °C 29.83in /  1010hPa Calm     95% 0.00in /  0mm
03:19 49.1 °F /  9.5 °C 47.7 °F /  8.7 °C 29.83in /  1010hPa Calm     95% 0.00in /  0mm
03:24 49.1 °F /  9.5 °C 47.7 °F /  8.7 °C 29.83in /  1010hPa Calm     95% 0.00in /  0mm
03:29 49.1 °F /  9.5 °C 47.7 °F /  8.7 °C 29.82in /  1009.7hPa Calm   1.0mph /  1.6km/h 95% 0.00in /  0mm
03:34 49.1 °F /  9.5 °C 47.7 °F /  8.7 °C 29.82in /  1009.7hPa Calm   3.0mph /  4.8km/h 95% 0.00in /  0mm
03:39 49.2 °F /  9.6 °C 47.8 °F /  8.8 °C 29.82in /  1009.7hPa Calm   4.0mph /  6.4km/h 95% 0.00in /  0mm
03:44 49.2 °F /  9.6 °C 47.8 °F /  8.8 °C 29.82in /  1009.7hPa Calm   4.0mph /  6.4km/h 95% 0.00in /  0mm
03:49 49.2 °F /  9.6 °C 47.8 °F /  8.8 °C 29.82in /  1009.7hPa Calm   3.0mph /  4.8km/h 95% 0.00in /  0mm
03:54 49.1 °F /  9.5 °C 47.7 °F /  8.7 °C 29.82in /  1009.7hPa Calm     95% 0.00in /  0mm
03:59 48.9 °F /  9.4 °C 47.5 °F /  8.6 °C 29.82in /  1009.7hPa Calm     95% 0.00in /  0mm
04:04 48.8 °F /  9.3 °C 47.4 °F /  8.6 °C 29.82in /  1009.7hPa Calm     95% 0.00in /  0mm
04:09 48.6 °F /  9.2 °C 47.2 °F /  8.4 °C 29.83in /  1010hPa Calm   2.0mph /  3.2km/h 95% 0.00in /  0mm
04:14 48.5 °F /  9.2 °C 47.1 °F /  8.4 °C 29.83in /  1010hPa Calm   2.0mph /  3.2km/h 95% 0.00in /  0mm
04:19 48.5 °F /  9.2 °C 47.1 °F /  8.4 °C 29.82in /  1009.7hPa Calm   2.0mph /  3.2km/h 95% 0.00in /  0mm
04:24 48.4 °F /  9.1 °C 47.0 °F /  8.3 °C 29.83in /  1010hPa Calm   3.0mph /  4.8km/h 95% 0.00in /  0mm
04:29 48.4 °F /  9.1 °C 47.0 °F /  8.3 °C 29.83in /  1010hPa NNE 2.0mph /  3.2km/h 4.0mph /  6.4km/h 95% 0.00in /  0mm
04:34 48.3 °F /  9.1 °C 46.9 °F /  8.3 °C 29.83in /  1010hPa Calm   4.0mph /  6.4km/h 95% 0.00in /  0mm
04:39 48.3 °F /  9.1 °C 46.9 °F /  8.3 °C 29.83in /  1010hPa Calm   3.0mph /  4.8km/h 95% 0.00in /  0mm
04:44 48.2 °F /  9 °C 46.8 °F /  8.2 °C 29.83in /  1010hPa Calm   3.0mph /  4.8km/h 95% 0.00in /  0mm
04:49 48.0 °F /  8.9 °C 46.6 °F /  8.1 °C 29.83in /  1010hPa Calm   1.0mph /  1.6km/h 95% 0.00in /  0mm
04:54 47.9 °F /  8.8 °C 46.5 °F /  8.1 °C 29.83in /  1010hPa NNE 1.0mph /  1.6km/h 3.0mph /  4.8km/h 95% 0.00in /  0mm
04:59 47.8 °F /  8.8 °C 46.4 °F /  8 °C 29.83in /  1010hPa Calm   3.0mph /  4.8km/h 95% 0.00in /  0mm
05:04 47.8 °F /  8.8 °C 46.4 °F /  8 °C 29.83in /  1010hPa NNE 1.0mph /  1.6km/h 3.0mph /  4.8km/h 95% 0.00in /  0mm
05:09 48.0 °F /  8.9 °C 46.6 °F /  8.1 °C 29.83in /  1010hPa Calm   3.0mph /  4.8km/h 95% 0.00in /  0mm
05:14 48.2 °F /  9 °C 46.8 °F /  8.2 °C 29.84in /  1010.4hPa Calm   3.0mph /  4.8km/h 95% 0.00in /  0mm
05:19 48.4 °F /  9.1 °C 47.0 °F /  8.3 °C 29.84in /  1010.4hPa NNE 1.0mph /  1.6km/h 5.0mph /  8km/h 95% 0.00in /  0mm
05:24 48.5 °F /  9.2 °C 47.1 °F /  8.4 °C 29.84in /  1010.4hPa Calm   5.0mph /  8km/h 95% 0.00in /  0mm
05:29 48.5 °F /  9.2 °C 47.1 °F /  8.4 °C 29.84in /  1010.4hPa Calm   4.0mph /  6.4km/h 95% 0.00in /  0mm
05:34 48.4 °F /  9.1 °C 47.0 °F /  8.3 °C 29.84in /  1010.4hPa NNE 1.0mph /  1.6km/h 3.0mph /  4.8km/h 95% 0.00in /  0mm
05:39 48.3 °F /  9.1 °C 46.9 °F /  8.3 °C 29.84in /  1010.4hPa NNE 1.0mph /  1.6km/h 4.0mph /  6.4km/h 95% 0.00in /  0mm
05:49 48.1 °F /  8.9 °C 46.7 °F /  8.2 °C 29.85in /  1010.7hPa Calm   4.0mph /  6.4km/h 95% 0.00in /  0mm
05:59 47.7 °F /  8.7 °C 46.3 °F /  7.9 °C 29.85in /  1010.7hPa Calm   3.0mph /  4.8km/h 95% 0.00in /  0mm
06:04 47.7 °F /  8.7 °C 46.3 °F /  7.9 °C 29.85in /  1010.7hPa NE 1.0mph /  1.6km/h 5.0mph /  8km/h 95% 0.00in /  0mm
06:09 47.9 °F /  8.8 °C 46.5 °F /  8.1 °C 29.85in /  1010.7hPa North 1.0mph /  1.6km/h 5.0mph /  8km/h 95% 0.00in /  0mm
06:14 48.0 °F /  8.9 °C 46.6 °F /  8.1 °C 29.85in /  1010.7hPa Calm   4.0mph /  6.4km/h 95% 0.00in /  0mm
06:19 48.1 °F /  8.9 °C 46.7 °F /  8.2 °C 29.86in /  1011.1hPa NNE 1.0mph /  1.6km/h 3.0mph /  4.8km/h 95% 0.00in /  0mm
06:24 48.2 °F /  9 °C 46.8 °F /  8.2 °C 29.86in /  1011.1hPa Calm   3.0mph /  4.8km/h 95% 0.00in /  0mm
06:29 48.2 °F /  9 °C 48.2 °F /  9 °C 29.86in /  1011.1hPa Calm   3.0mph /  4.8km/h 100% 0.00in /  0mm
06:39 48.3 °F /  9.1 °C 46.9 °F /  8.3 °C 29.86in /  1011.1hPa Calm   1.0mph /  1.6km/h 95% 0.00in /  0mm
06:44 48.5 °F /  9.2 °C 47.1 °F /  8.4 °C 29.86in /  1011.1hPa Calm   3.0mph /  4.8km/h 95% 0.00in /  0mm
06:49 48.7 °F /  9.3 °C 47.3 °F /  8.5 °C 29.86in /  1011.1hPa NNE 1.0mph /  1.6km/h 4.0mph /  6.4km/h 95% 0.00in /  0mm
06:59 49.0 °F /  9.4 °C 47.6 °F /  8.7 °C 29.87in /  1011.4hPa NNE 1.0mph /  1.6km/h 4.0mph /  6.4km/h 95% 0.00in /  0mm
07:04 49.2 °F /  9.6 °C 47.8 °F /  8.8 °C 29.87in /  1011.4hPa NNE 1.0mph /  1.6km/h 4.0mph /  6.4km/h 95% 0.00in /  0mm
07:09 49.5 °F /  9.7 °C 48.1 °F /  8.9 °C 29.87in /  1011.4hPa Calm   3.0mph /  4.8km/h 95% 0.00in /  0mm
07:14 49.6 °F /  9.8 °C 48.2 °F /  9 °C 29.87in /  1011.4hPa Calm   3.0mph /  4.8km/h 95% 0.00in /  0mm
07:19 49.8 °F /  9.9 °C 48.4 °F /  9.1 °C 29.87in /  1011.4hPa NNE 1.0mph /  1.6km/h 5.0mph /  8km/h 95% 0.00in /  0mm
07:24 50.1 °F /  10.1 °C 48.7 °F /  9.3 °C 29.87in /  1011.4hPa Calm   6.0mph /  9.7km/h 95% 0.00in /  0mm
07:29 50.6 °F /  10.3 °C 49.2 °F /  9.6 °C 29.87in /  1011.4hPa NNE 2.0mph /  3.2km/h 6.0mph /  9.7km/h 95% 0.00in /  0mm
07:34 50.7 °F /  10.4 °C 48.2 °F /  9 °C 29.87in /  1011.4hPa Calm   8.0mph /  12.9km/h 91% 0.00in /  0mm
07:39 51.2 °F /  10.7 °C 48.4 °F /  9.1 °C 29.88in /  1011.7hPa Calm   8.0mph /  12.9km/h 90% 0.00in /  0mm
07:44 51.7 °F /  10.9 °C 48.6 °F /  9.2 °C 29.88in /  1011.7hPa Calm   4.0mph /  6.4km/h 89% 0.00in /  0mm
07:49 52.1 °F /  11.2 °C 48.4 °F /  9.1 °C 29.88in /  1011.7hPa Calm   4.0mph /  6.4km/h 87% 0.00in /  0mm
07:54 52.6 °F /  11.4 °C 48.2 °F /  9 °C 29.88in /  1011.7hPa Calm   6.0mph /  9.7km/h 85% 0.00in /  0mm
07:59 53.5 °F /  11.9 °C 48.8 °F /  9.3 °C 29.88in /  1011.7hPa Calm   6.0mph /  9.7km/h 84% 0.00in /  0mm
08:04 54.3 °F /  12.4 °C 48.9 °F /  9.4 °C 29.88in /  1011.7hPa Calm   8.0mph /  12.9km/h 82% 0.00in /  0mm
08:09 55.0 °F /  12.8 °C 48.6 °F /  9.2 °C 29.88in /  1011.7hPa NNE 1.0mph /  1.6km/h 8.0mph /  12.9km/h 79% 0.00in /  0mm
08:14 55.2 °F /  12.9 °C 47.4 °F /  8.6 °C 29.88in /  1011.7hPa NNW 3.0mph /  4.8km/h 9.0mph /  14.5km/h 75% 0.00in /  0mm
08:24 54.8 °F /  12.7 °C 47.4 °F /  8.6 °C 29.88in /  1011.7hPa Calm   10.0mph /  16.1km/h 76% 0.00in /  0mm
08:29 54.8 °F /  12.7 °C 47.7 °F /  8.7 °C 29.88in /  1011.7hPa NNE 1.0mph /  1.6km/h 9.0mph /  14.5km/h 77% 0.00in /  0mm
08:34 55.0 °F /  12.8 °C 47.6 °F /  8.7 °C 29.88in /  1011.7hPa North 1.0mph /  1.6km/h 7.0mph /  11.3km/h 76% 0.00in /  0mm
08:39 55.0 °F /  12.8 °C 47.6 °F /  8.7 °C 29.88in /  1011.7hPa Calm   10.0mph /  16.1km/h 76% 0.00in /  0mm
08:44 55.3 °F /  12.9 °C 47.9 °F /  8.8 °C 29.88in /  1011.7hPa North 1.0mph /  1.6km/h 10.0mph /  16.1km/h 76% 0.00in /  0mm
08:49 55.6 °F /  13.1 °C 48.2 °F /  9 °C 29.88in /  1011.7hPa North 3.0mph /  4.8km/h 10.0mph /  16.1km/h 76% 0.00in /  0mm
08:54 56.0 °F /  13.3 °C 47.8 °F /  8.8 °C 29.88in /  1011.7hPa ENE 1.0mph /  1.6km/h 11.0mph /  17.7km/h 74% 0.00in /  0mm
09:04 57.5 °F /  14.2 °C 47.4 °F /  8.6 °C 29.88in /  1011.7hPa NNE 1.0mph /  1.6km/h 10.0mph /  16.1km/h 69% 0.00in /  0mm
09:09 58.0 °F /  14.4 °C 47.5 °F /  8.6 °C 29.88in /  1011.7hPa North 2.0mph /  3.2km/h 10.0mph /  16.1km/h 68% 0.00in /  0mm
09:14 58.2 °F /  14.6 °C 47.7 °F /  8.7 °C 29.88in /  1011.7hPa NNE 3.0mph /  4.8km/h 13.0mph /  20.9km/h 68% 0.00in /  0mm
09:19 57.6 °F /  14.2 °C 47.1 °F /  8.4 °C 29.88in /  1011.7hPa NE 3.0mph /  4.8km/h 13.0mph /  20.9km/h 68% 0.00in /  0mm
09:24 57.4 °F /  14.1 °C 47.7 °F /  8.7 °C 29.88in /  1011.7hPa NW 1.0mph /  1.6km/h 12.0mph /  19.3km/h 70% 0.00in /  0mm
09:29 57.8 °F /  14.3 °C 48.1 °F /  8.9 °C 29.88in /  1011.7hPa NE 2.0mph /  3.2km/h 9.0mph /  14.5km/h 70% 0.00in /  0mm
09:34 58.9 °F /  14.9 °C 49.1 °F /  9.5 °C 29.88in /  1011.7hPa NE 1.0mph /  1.6km/h 9.0mph /  14.5km/h 70% 0.00in /  0mm
09:39 60.1 °F /  15.6 °C 50.3 °F /  10.2 °C 29.88in /  1011.7hPa NNW 1.0mph /  1.6km/h 7.0mph /  11.3km/h 70% 0.00in /  0mm
09:49 59.4 °F /  15.2 °C 48.4 °F /  9.1 °C 29.88in /  1011.7hPa NNE 3.0mph /  4.8km/h 13.0mph /  20.9km/h 67% 0.00in /  0mm
09:54 59.3 °F /  15.2 °C 49.5 °F /  9.7 °C 29.88in /  1011.7hPa NE 1.0mph /  1.6km/h 13.0mph /  20.9km/h 70% 0.00in /  0mm
09:59 59.5 °F /  15.3 °C 48.9 °F /  9.4 °C 29.88in /  1011.7hPa NE 2.0mph /  3.2km/h 7.0mph /  11.3km/h 68% 0.00in /  0mm
10:04 59.0 °F /  15 °C 47.7 °F /  8.7 °C 29.88in /  1011.7hPa North 2.0mph /  3.2km/h 9.0mph /  14.5km/h 66% 0.00in /  0mm
10:09 58.4 °F /  14.7 °C 47.1 °F /  8.4 °C 29.88in /  1011.7hPa NE 1.0mph /  1.6km/h 10.0mph /  16.1km/h 66% 0.00in /  0mm
10:14 58.1 °F /  14.5 °C 46.4 °F /  8 °C 29.88in /  1011.7hPa NNE 2.0mph /  3.2km/h 10.0mph /  16.1km/h 65% 0.00in /  0mm
10:19 58.2 °F /  14.6 °C 47.3 °F /  8.5 °C 29.88in /  1011.7hPa NE 1.0mph /  1.6km/h 11.0mph /  17.7km/h 67% 0.00in /  0mm
10:24 58.9 °F /  14.9 °C 48.8 °F /  9.3 °C 29.88in /  1011.7hPa Calm   11.0mph /  17.7km/h 69% 0.00in /  0mm
10:29 59.8 °F /  15.4 °C 49.2 °F /  9.6 °C 29.88in /  1011.7hPa NNE 2.0mph /  3.2km/h 10.0mph /  16.1km/h 68% 0.00in /  0mm
10:34 61.0 °F /  16.1 °C 47.9 °F /  8.8 °C 29.88in /  1011.7hPa NNE 5.0mph /  8km/h 14.0mph /  22.5km/h 62% 0.00in /  0mm
10:39 61.8 °F /  16.6 °C 49.1 °F /  9.5 °C 29.88in /  1011.7hPa NNE 4.0mph /  6.4km/h 14.0mph /  22.5km/h 63% 0.00in /  0mm
10:44 62.6 °F /  17 °C 49.0 °F /  9.4 °C 29.88in /  1011.7hPa NNE 3.0mph /  4.8km/h 14.0mph /  22.5km/h 61% 0.00in /  0mm
10:49 62.9 °F /  17.2 °C 50.1 °F /  10.1 °C 29.87in /  1011.4hPa NNE 3.0mph /  4.8km/h 14.0mph /  22.5km/h 63% 0.00in /  0mm
10:54 62.8 °F /  17.1 °C 47.8 °F /  8.8 °C 29.88in /  1011.7hPa NNE 6.0mph /  9.7km/h 18.0mph /  29km/h 58% 0.00in /  0mm
10:59 61.7 °F /  16.5 °C 47.2 °F /  8.4 °C 29.88in /  1011.7hPa NE 5.0mph /  8km/h 18.0mph /  29km/h 59% 0.00in /  0mm
11:04 61.7 °F /  16.5 °C 47.7 °F /  8.7 °C 29.88in /  1011.7hPa NNE 6.0mph /  9.7km/h 14.0mph /  22.5km/h 60% 0.00in /  0mm
11:09 62.2 °F /  16.8 °C 47.7 °F /  8.7 °C 29.88in /  1011.7hPa NNE 7.0mph /  11.3km/h 17.0mph /  27.4km/h 59% 0.00in /  0mm
11:14 62.3 °F /  16.8 °C 47.8 °F /  8.8 °C 29.88in /  1011.7hPa NNE 3.0mph /  4.8km/h 17.0mph /  27.4km/h 59% 0.00in /  0mm
11:19 62.0 °F /  16.7 °C 48.4 °F /  9.1 °C 29.88in /  1011.7hPa NNE 5.0mph /  8km/h 13.0mph /  20.9km/h 61% 0.00in /  0mm
11:24 61.8 °F /  16.6 °C 48.7 °F /  9.3 °C 29.88in /  1011.7hPa North 3.0mph /  4.8km/h 14.0mph /  22.5km/h 62% 0.00in /  0mm
11:29 62.3 °F /  16.8 °C 46.9 °F /  8.3 °C 29.89in /  1012.1hPa NNE 6.0mph /  9.7km/h 18.0mph /  29km/h 57% 0.00in /  0mm
11:34 61.9 °F /  16.6 °C 47.0 °F /  8.3 °C 29.88in /  1011.7hPa NE 7.0mph /  11.3km/h 18.0mph /  29km/h 58% 0.00in /  0mm
11:39 61.6 °F /  16.4 °C 46.7 °F /  8.2 °C 29.88in /  1011.7hPa NE 4.0mph /  6.4km/h 18.0mph /  29km/h 58% 0.00in /  0mm
11:44 62.7 °F /  17.1 °C 48.6 °F /  9.2 °C 29.88in /  1011.7hPa NNE 5.0mph /  8km/h 18.0mph /  29km/h 60% 0.00in /  0mm
11:49 62.6 °F /  17 °C 47.2 °F /  8.4 °C 29.88in /  1011.7hPa NNE 8.0mph /  12.9km/h 16.0mph /  25.7km/h 57% 0.00in /  0mm
11:54 62.2 °F /  16.8 °C 47.7 °F /  8.7 °C 29.89in /  1012.1hPa NNE 3.0mph /  4.8km/h 16.0mph /  25.7km/h 59% 0.00in /  0mm
11:59 62.1 °F /  16.7 °C 47.2 °F /  8.4 °C 29.89in /  1012.1hPa North 6.0mph /  9.7km/h 11.0mph /  17.7km/h 58% 0.00in /  0mm
12:04 61.8 °F /  16.6 °C 47.8 °F /  8.8 °C 29.89in /  1012.1hPa NE 5.0mph /  8km/h 11.0mph /  17.7km/h 60% 0.00in /  0mm
12:09 62.7 °F /  17.1 °C 48.6 °F /  9.2 °C 29.88in /  1011.7hPa NE 2.0mph /  3.2km/h 10.0mph /  16.1km/h 60% 0.00in /  0mm
12:14 63.5 °F /  17.5 °C 48.9 °F /  9.4 °C 29.89in /  1012.1hPa NNE 5.0mph /  8km/h 15.0mph /  24.1km/h 59% 0.00in /  0mm
12:19 63.7 °F /  17.6 °C 48.2 °F /  9 °C 29.89in /  1012.1hPa NE 3.0mph /  4.8km/h 15.0mph /  24.1km/h 57% 0.00in /  0mm
12:24 63.3 °F /  17.4 °C 47.4 °F /  8.6 °C 29.89in /  1012.1hPa NNE 4.0mph /  6.4km/h 11.0mph /  17.7km/h 56% 0.00in /  0mm
12:29 62.5 °F /  16.9 °C 47.5 °F /  8.6 °C 29.89in /  1012.1hPa NE 3.0mph /  4.8km/h 11.0mph /  17.7km/h 58% 0.00in /  0mm
12:34 62.7 °F /  17.1 °C 47.7 °F /  8.7 °C 29.89in /  1012.1hPa NE 2.0mph /  3.2km/h 9.0mph /  14.5km/h 58% 0.00in /  0mm
12:39 63.0 °F /  17.2 °C 48.9 °F /  9.4 °C 29.89in /  1012.1hPa ENE 2.0mph /  3.2km/h 9.0mph /  14.5km/h 60% 0.00in /  0mm
12:44 63.2 °F /  17.3 °C 48.2 °F /  9 °C 29.89in /  1012.1hPa North 1.0mph /  1.6km/h 10.0mph /  16.1km/h 58% 0.00in /  0mm
12:49 63.3 °F /  17.4 °C 47.8 °F /  8.8 °C 29.89in /  1012.1hPa NE 2.0mph /  3.2km/h 12.0mph /  19.3km/h 57% 0.00in /  0mm
12:54 64.3 °F /  17.9 °C 49.2 °F /  9.6 °C 29.88in /  1011.7hPa NNW 2.0mph /  3.2km/h 12.0mph /  19.3km/h 58% 0.00in /  0mm
12:59 65.5 °F /  18.6 °C 50.8 °F /  10.4 °C 29.88in /  1011.7hPa East 3.0mph /  4.8km/h 13.0mph /  20.9km/h 59% 0.00in /  0mm
13:04 64.6 °F /  18.1 °C 47.1 °F /  8.4 °C 29.88in /  1011.7hPa NE 5.0mph /  8km/h 13.0mph /  20.9km/h 53% 0.00in /  0mm
13:14 63.8 °F /  17.7 °C 47.3 °F /  8.5 °C 29.88in /  1011.7hPa NNE 6.0mph /  9.7km/h 10.0mph /  16.1km/h 55% 0.00in /  0mm
13:19 63.7 °F /  17.6 °C 46.8 °F /  8.2 °C 29.88in /  1011.7hPa NE 2.0mph /  3.2km/h 10.0mph /  16.1km/h 54% 0.00in /  0mm
13:24 64.3 °F /  17.9 °C 47.8 °F /  8.8 °C 29.88in /  1011.7hPa NE 4.0mph /  6.4km/h 10.0mph /  16.1km/h 55% 0.00in /  0mm
13:29 64.6 °F /  18.1 °C 46.6 °F /  8.1 °C 29.88in /  1011.7hPa NNE 6.0mph /  9.7km/h 12.0mph /  19.3km/h 52% 0.00in /  0mm
13:34 64.4 °F /  18 °C 47.4 °F /  8.6 °C 29.88in /  1011.7hPa ENE 2.0mph /  3.2km/h 12.0mph /  19.3km/h 54% 0.00in /  0mm
13:39 64.3 °F /  17.9 °C 47.8 °F /  8.8 °C 29.88in /  1011.7hPa ENE 1.0mph /  1.6km/h 9.0mph /  14.5km/h 55% 0.00in /  0mm
13:44 65.3 °F /  18.5 °C 50.6 °F /  10.3 °C 29.88in /  1011.7hPa Calm   7.0mph /  11.3km/h 59% 0.00in /  0mm
13:49 66.6 °F /  19.2 °C 49.9 °F /  9.9 °C 29.88in /  1011.7hPa NNE 1.0mph /  1.6km/h 8.0mph /  12.9km/h 55% 0.00in /  0mm
13:54 66.8 °F /  19.3 °C 51.1 °F /  10.6 °C 29.88in /  1011.7hPa NNE 1.0mph /  1.6km/h 8.0mph /  12.9km/h 57% 0.00in /  0mm
13:59 66.7 °F /  19.3 °C 49.5 °F /  9.7 °C 29.88in /  1011.7hPa Calm   5.0mph /  8km/h 54% 0.00in /  0mm
14:04 65.9 °F /  18.8 °C 47.3 °F /  8.5 °C 29.88in /  1011.7hPa NNE 2.0mph /  3.2km/h 9.0mph /  14.5km/h 51% 0.00in /  0mm
14:09 65.0 °F /  18.3 °C 48.0 °F /  8.9 °C 29.88in /  1011.7hPa Calm   9.0mph /  14.5km/h 54% 0.00in /  0mm
14:19 65.8 °F /  18.8 °C 48.7 °F /  9.3 °C 29.87in /  1011.4hPa Calm   7.0mph /  11.3km/h 54% 0.00in /  0mm
14:24 66.5 °F /  19.2 °C 48.9 °F /  9.4 °C 29.87in /  1011.4hPa NNE 1.0mph /  1.6km/h 9.0mph /  14.5km/h 53% 0.00in /  0mm
14:29 66.6 °F /  19.2 °C 48.4 °F /  9.1 °C 29.88in /  1011.7hPa NE 1.0mph /  1.6km/h 9.0mph /  14.5km/h 52% 0.00in /  0mm
14:34 66.0 °F /  18.9 °C 47.9 °F /  8.8 °C 29.87in /  1011.4hPa Calm   9.0mph /  14.5km/h 52% 0.00in /  0mm
14:39 64.9 °F /  18.3 °C 45.3 °F /  7.4 °C 29.87in /  1011.4hPa NNW 1.0mph /  1.6km/h 9.0mph /  14.5km/h 49% 0.00in /  0mm
14:44 64.7 °F /  18.2 °C 46.7 °F /  8.2 °C 29.88in /  1011.7hPa Calm   8.0mph /  12.9km/h 52% 0.00in /  0mm
14:49 64.7 °F /  18.2 °C 47.2 °F /  8.4 °C 29.88in /  1011.7hPa Calm   8.0mph /  12.9km/h 53% 0.00in /  0mm
14:54 65.3 °F /  18.5 °C 49.2 °F /  9.6 °C 29.88in /  1011.7hPa NNE 1.0mph /  1.6km/h 8.0mph /  12.9km/h 56% 0.00in /  0mm
14:59 65.5 °F /  18.6 °C 46.9 °F /  8.3 °C 29.88in /  1011.7hPa Calm   8.0mph /  12.9km/h 51% 0.00in /  0mm
15:04 65.5 °F /  18.6 °C 46.4 °F /  8 °C 29.88in /  1011.7hPa NNE 3.0mph /  4.8km/h 8.0mph /  12.9km/h 50% 0.00in /  0mm
15:09 65.0 °F /  18.3 °C 47.0 °F /  8.3 °C 29.88in /  1011.7hPa Calm   10.0mph /  16.1km/h 52% 0.00in /  0mm
15:14 63.9 °F /  17.7 °C 49.3 °F /  9.6 °C 29.88in /  1011.7hPa Calm   10.0mph /  16.1km/h 59% 0.00in /  0mm
15:19 62.9 °F /  17.2 °C 47.9 °F /  8.8 °C 29.88in /  1011.7hPa Calm   5.0mph /  8km/h 58% 0.00in /  0mm
15:24 62.7 °F /  17.1 °C 49.5 °F /  9.7 °C 29.88in /  1011.7hPa Calm   1.0mph /  1.6km/h 62% 0.00in /  0mm
15:29 63.7 °F /  17.6 °C 50.4 °F /  10.2 °C 29.87in /  1011.4hPa Calm   2.0mph /  3.2km/h 62% 0.00in /  0mm
15:34 64.9 °F /  18.3 °C 52.9 °F /  11.6 °C 29.87in /  1011.4hPa Calm   2.0mph /  3.2km/h 65% 0.00in /  0mm
15:39 66.3 °F /  19.1 °C 49.7 °F /  9.8 °C 29.87in /  1011.4hPa Calm   5.0mph /  8km/h 55% 0.00in /  0mm
15:44 67.1 °F /  19.5 °C 49.9 °F /  9.9 °C 29.87in /  1011.4hPa Calm   5.0mph /  8km/h 54% 0.00in /  0mm
15:49 67.0 °F /  19.4 °C 50.8 °F /  10.4 °C 29.88in /  1011.7hPa Calm   10.0mph /  16.1km/h 56% 0.00in /  0mm
15:54 66.8 °F /  19.3 °C 51.1 °F /  10.6 °C 29.88in /  1011.7hPa NNW 1.0mph /  1.6km/h 11.0mph /  17.7km/h 57% 0.00in /  0mm
15:59 67.3 °F /  19.6 °C 52.0 °F /  11.1 °C 29.88in /  1011.7hPa NNW 3.0mph /  4.8km/h 11.0mph /  17.7km/h 58% 0.00in /  0mm
16:04 66.1 °F /  18.9 °C 50.9 °F /  10.5 °C 29.88in /  1011.7hPa North 4.0mph /  6.4km/h 15.0mph /  24.1km/h 58% 0.00in /  0mm
16:09 63.9 °F /  17.7 °C 50.2 °F /  10.1 °C 29.88in /  1011.7hPa NW 1.0mph /  1.6km/h 15.0mph /  24.1km/h 61% 0.00in /  0mm
16:14 62.5 °F /  16.9 °C 51.0 °F /  10.6 °C 29.88in /  1011.7hPa Calm   13.0mph /  20.9km/h 66% 0.00in /  0mm
16:19 61.4 °F /  16.3 °C 50.0 °F /  10 °C 29.88in /  1011.7hPa Calm   8.0mph /  12.9km/h 66% 0.00in /  0mm
16:24 60.8 °F /  16 °C 49.4 °F /  9.7 °C 29.88in /  1011.7hPa Calm   8.0mph /  12.9km/h 66% 0.00in /  0mm
16:29 60.6 °F /  15.9 °C 50.8 °F /  10.4 °C 29.88in /  1011.7hPa Calm   2.0mph /  3.2km/h 70% 0.00in /  0mm
16:34 60.3 °F /  15.7 °C 49.3 °F /  9.6 °C 29.88in /  1011.7hPa Calm   6.0mph /  9.7km/h 67% 0.00in /  0mm
16:39 60.0 °F /  15.6 °C 48.6 °F /  9.2 °C 29.88in /  1011.7hPa Calm   6.0mph /  9.7km/h 66% 0.00in /  0mm
16:44 59.6 °F /  15.3 °C 47.4 °F /  8.6 °C 29.88in /  1011.7hPa NNE 1.0mph /  1.6km/h 5.0mph /  8km/h 64% 0.00in /  0mm
16:49 59.4 °F /  15.2 °C 47.6 °F /  8.7 °C 29.87in /  1011.4hPa Calm   5.0mph /  8km/h 65% 0.00in /  0mm
16:54 59.3 °F /  15.2 °C 47.5 °F /  8.6 °C 29.88in /  1011.7hPa Calm   2.0mph /  3.2km/h 65% 0.00in /  0mm
16:59 59.5 °F /  15.3 °C 48.9 °F /  9.4 °C 29.88in /  1011.7hPa Calm   1.0mph /  1.6km/h 68% 0.00in /  0mm
17:04 59.8 °F /  15.4 °C 48.4 °F /  9.1 °C 29.87in /  1011.4hPa Calm     66% 0.00in /  0mm
17:09 60.1 °F /  15.6 °C 48.7 °F /  9.3 °C 29.87in /  1011.4hPa SSW 1.0mph /  1.6km/h 3.0mph /  4.8km/h 66% 0.00in /  0mm
17:14 60.7 °F /  15.9 °C 50.9 °F /  10.5 °C 29.87in /  1011.4hPa Calm   3.0mph /  4.8km/h 70% 0.00in /  0mm
17:19 61.2 °F /  16.2 °C 48.9 °F /  9.4 °C 29.87in /  1011.4hPa Calm     64% 0.00in /  0mm
17:24 61.2 °F /  16.2 °C 48.9 °F /  9.4 °C 29.87in /  1011.4hPa Calm   1.0mph /  1.6km/h 64% 0.00in /  0mm
17:29 61.8 °F /  16.6 °C 49.5 °F /  9.7 °C 29.86in /  1011.1hPa Calm   1.0mph /  1.6km/h 64% 0.00in /  0mm
17:34 62.3 °F /  16.8 °C 49.1 °F /  9.5 °C 29.86in /  1011.1hPa Calm   1.0mph /  1.6km/h 62% 0.00in /  0mm
17:39 62.9 °F /  17.2 °C 49.3 °F /  9.6 °C 29.86in /  1011.1hPa Calm   2.0mph /  3.2km/h 61% 0.00in /  0mm
17:44 63.5 °F /  17.5 °C 48.0 °F /  8.9 °C 29.86in /  1011.1hPa SW 2.0mph /  3.2km/h 4.0mph /  6.4km/h 57% 0.00in /  0mm
17:49 63.4 °F /  17.4 °C 48.8 °F /  9.3 °C 29.86in /  1011.1hPa Calm   4.0mph /  6.4km/h 59% 0.00in /  0mm
17:59 63.8 °F /  17.7 °C 48.3 °F /  9.1 °C 29.86in /  1011.1hPa Calm     57% 0.00in /  0mm
18:04 63.9 °F /  17.7 °C 48.8 °F /  9.3 °C 29.86in /  1011.1hPa Calm   1.0mph /  1.6km/h 58% 0.00in /  0mm
18:09 64.0 °F /  17.8 °C 47.5 °F /  8.6 °C 29.86in /  1011.1hPa Calm   1.0mph /  1.6km/h 55% 0.00in /  0mm
18:14 64.8 °F /  18.2 °C 47.3 °F /  8.5 °C 29.86in /  1011.1hPa Calm   3.0mph /  4.8km/h 53% 0.00in /  0mm
18:19 64.9 °F /  18.3 °C 48.4 °F /  9.1 °C 29.86in /  1011.1hPa Calm   3.0mph /  4.8km/h 55% 0.00in /  0mm
18:24 64.7 °F /  18.2 °C 48.2 °F /  9 °C 29.86in /  1011.1hPa Calm   6.0mph /  9.7km/h 55% 0.00in /  0mm
18:29 64.5 °F /  18.1 °C 48.0 °F /  8.9 °C 29.86in /  1011.1hPa Calm   6.0mph /  9.7km/h 55% 0.00in /  0mm
18:34 64.5 °F /  18.1 °C 48.0 °F /  8.9 °C 29.86in /  1011.1hPa Calm   1.0mph /  1.6km/h 55% 0.00in /  0mm
18:39 64.5 °F /  18.1 °C 48.0 °F /  8.9 °C 29.86in /  1011.1hPa Calm   1.0mph /  1.6km/h 55% 0.00in /  0mm
18:44 64.8 °F /  18.2 °C 49.2 °F /  9.6 °C 29.86in /  1011.1hPa Calm   1.0mph /  1.6km/h 57% 0.00in /  0mm
18:49 64.8 °F /  18.2 °C 48.3 °F /  9.1 °C 29.86in /  1011.1hPa Calm   1.0mph /  1.6km/h 55% 0.00in /  0mm
18:54 64.3 °F /  17.9 °C 48.3 °F /  9.1 °C 29.87in /  1011.4hPa Calm   1.0mph /  1.6km/h 56% 0.00in /  0mm
18:59 63.8 °F /  17.7 °C 50.1 °F /  10.1 °C 29.87in /  1011.4hPa Calm   1.0mph /  1.6km/h 61% 0.00in /  0mm
19:04 63.0 °F /  17.2 °C 48.5 °F /  9.2 °C 29.87in /  1011.4hPa Calm   1.0mph /  1.6km/h 59% 0.00in /  0mm
19:09 62.3 °F /  16.8 °C 50.0 °F /  10 °C 29.87in /  1011.4hPa Calm   1.0mph /  1.6km/h 64% 0.00in /  0mm
19:14 61.7 °F /  16.5 °C 51.0 °F /  10.6 °C 29.87in /  1011.4hPa Calm     68% 0.00in /  0mm
19:24 59.8 °F /  15.4 °C 51.5 °F /  10.8 °C 29.87in /  1011.4hPa Calm   1.0mph /  1.6km/h 74% 0.01in /  0.3mm
19:29 59.0 °F /  15 °C 51.8 °F /  11 °C 29.87in /  1011.4hPa Calm     77% 0.01in /  0.3mm
19:34 58.0 °F /  14.4 °C 51.5 °F /  10.8 °C 29.87in /  1011.4hPa Calm     79% 0.01in /  0.3mm
19:44 56.2 °F /  13.4 °C 50.1 °F /  10.1 °C 29.88in /  1011.7hPa Calm     80% 0.01in /  0.3mm
19:49 55.7 °F /  13.2 °C 50.0 °F /  10 °C 29.88in /  1011.7hPa Calm     81% 0.01in /  0.3mm
19:54 55.5 °F /  13.1 °C 50.1 °F /  10.1 °C 29.88in /  1011.7hPa Calm     82% 0.01in /  0.3mm
19:59 55.3 °F /  12.9 °C 50.2 °F /  10.1 °C 29.88in /  1011.7hPa Calm     83% 0.01in /  0.3mm
20:04 55.1 °F /  12.8 °C 50.4 °F /  10.2 °C 29.88in /  1011.7hPa Calm     84% 0.01in /  0.3mm
20:09 54.9 °F /  12.7 °C 50.2 °F /  10.1 °C 29.88in /  1011.7hPa Calm     84% 0.01in /  0.3mm
20:14 54.4 °F /  12.4 °C 49.7 °F /  9.8 °C 29.87in /  1011.4hPa Calm     84% 0.01in /  0.3mm
20:19 53.9 °F /  12.2 °C 49.2 °F /  9.6 °C 29.87in /  1011.4hPa Calm     84% 0.01in /  0.3mm
20:24 53.3 °F /  11.8 °C 48.6 °F /  9.2 °C 29.87in /  1011.4hPa Calm     84% 0.01in /  0.3mm
20:29 52.9 °F /  11.6 °C 48.2 °F /  9 °C 29.88in /  1011.7hPa Calm     84% 0.01in /  0.3mm
20:34 52.2 °F /  11.2 °C 47.5 °F /  8.6 °C 29.88in /  1011.7hPa Calm     84% 0.01in /  0.3mm
20:39 51.7 °F /  10.9 °C 47.3 °F /  8.5 °C 29.88in /  1011.7hPa Calm     85% 0.01in /  0.3mm
20:44 51.4 °F /  10.8 °C 47.0 °F /  8.3 °C 29.88in /  1011.7hPa Calm     85% 0.01in /  0.3mm
20:49 51.1 °F /  10.6 °C 46.8 °F /  8.2 °C 29.88in /  1011.7hPa Calm     85% 0.01in /  0.3mm
20:54 50.8 °F /  10.4 °C 46.8 °F /  8.2 °C 29.88in /  1011.7hPa Calm     86% 0.01in /  0.3mm
20:59 50.5 °F /  10.3 °C 46.5 °F /  8.1 °C 29.88in /  1011.7hPa Calm     86% 0.01in /  0.3mm
21:04 50.1 °F /  10.1 °C 46.1 °F /  7.8 °C 29.88in /  1011.7hPa Calm     86% 0.01in /  0.3mm
21:09 49.7 °F /  9.8 °C 45.7 °F /  7.6 °C 29.88in /  1011.7hPa Calm     86% 0.01in /  0.3mm
21:14 49.5 °F /  9.7 °C 45.5 °F /  7.5 °C 29.89in /  1012.1hPa Calm     86% 0.01in /  0.3mm
21:24 49.1 °F /  9.5 °C 45.4 °F /  7.4 °C 29.89in /  1012.1hPa Calm     87% 0.01in /  0.3mm
21:34 49.2 °F /  9.6 °C 46.1 °F /  7.8 °C 29.89in /  1012.1hPa Calm     89% 0.01in /  0.3mm
21:44 49.7 °F /  9.8 °C 46.9 °F /  8.3 °C 29.89in /  1012.1hPa Calm     90% 0.01in /  0.3mm
21:49 49.8 °F /  9.9 °C 47.0 °F /  8.3 °C 29.89in /  1012.1hPa Calm     90% 0.01in /  0.3mm
21:54 49.9 °F /  9.9 °C 47.1 °F /  8.4 °C 29.89in /  1012.1hPa Calm     90% 0.01in /  0.3mm
21:59 49.9 °F /  9.9 °C 47.1 °F /  8.4 °C 29.89in /  1012.1hPa Calm     90% 0.01in /  0.3mm
22:04 49.9 °F /  9.9 °C 47.4 °F /  8.6 °C 29.89in /  1012.1hPa Calm     91% 0.01in /  0.3mm
22:09 50.1 °F /  10.1 °C 47.6 °F /  8.7 °C 29.89in /  1012.1hPa Calm     91% 0.01in /  0.3mm
22:14 50.0 °F /  10 °C 47.5 °F /  8.6 °C 29.89in /  1012.1hPa Calm     91% 0.01in /  0.3mm
22:19 50.1 °F /  10.1 °C 47.6 °F /  8.7 °C 29.89in /  1012.1hPa Calm     91% 0.01in /  0.3mm
22:24 50.1 °F /  10.1 °C 47.6 °F /  8.7 °C 29.89in /  1012.1hPa Calm     91% 0.01in /  0.3mm
22:29 50.0 °F /  10 °C 48.6 °F /  9.2 °C 29.90in /  1012.4hPa Calm     95% 0.01in /  0.3mm
22:34 50.1 °F /  10.1 °C 47.9 °F /  8.8 °C 29.90in /  1012.4hPa Calm     92% 0.01in /  0.3mm
22:39 50.4 °F /  10.2 °C 48.2 °F /  9 °C 29.90in /  1012.4hPa Calm   1.0mph /  1.6km/h 92% 0.01in /  0.3mm
22:44 50.8 °F /  10.4 °C 48.9 °F /  9.4 °C 29.90in /  1012.4hPa Calm   2.0mph /  3.2km/h 93% 0.01in /  0.3mm
22:54 50.8 °F /  10.4 °C 48.6 °F /  9.2 °C 29.90in /  1012.4hPa Calm     92% 0.01in /  0.3mm
22:59 50.8 °F /  10.4 °C 48.9 °F /  9.4 °C 29.90in /  1012.4hPa Calm   1.0mph /  1.6km/h 93% 0.01in /  0.3mm
23:04 50.9 °F /  10.5 °C 48.9 °F /  9.4 °C 29.90in /  1012.4hPa Calm   1.0mph /  1.6km/h 93% 0.01in /  0.3mm
23:09 50.9 °F /  10.5 °C 48.9 °F /  9.4 °C 29.91in /  1012.8hPa Calm     93% 0.01in /  0.3mm
23:14 51.2 °F /  10.7 °C 49.2 °F /  9.6 °C 29.90in /  1012.4hPa Calm     93% 0.01in /  0.3mm
23:24 51.1 °F /  10.6 °C 49.1 °F /  9.5 °C 29.90in /  1012.4hPa Calm   3.0mph /  4.8km/h 93% 0.01in /  0.3mm
23:34 51.2 °F /  10.7 °C 49.0 °F /  9.4 °C 29.91in /  1012.8hPa Calm     92% 0.01in /  0.3mm
23:39 51.1 °F /  10.6 °C 48.9 °F /  9.4 °C 29.90in /  1012.4hPa Calm   1.0mph /  1.6km/h 92% 0.01in /  0.3mm
23:49 50.7 °F /  10.4 °C 48.5 °F /  9.2 °C 29.90in /  1012.4hPa Calm     92% 0.01in /  0.3mm
23:54 50.5 °F /  10.3 °C 48.0 °F /  8.9 °C 29.91in /  1012.8hPa Calm     91% 0.01in /  0.3mm
23:59 50.3 °F /  10.2 °C 47.8 °F /  8.8 °C 29.91in /  1012.8hPa Calm     91% 0.01in /  0.3mm
Westford Weather
Compliments of Weather Underground

 
 
Current Radar Loop:

Copyright © WestfordWeather.net 2007-2014. All rights reserved.